Hlavní strana
METAR-TAF:

METAR-TAF

Letiště :

Mezinárodní letiště princezny Juliany

Sint Maarten, Nizozemské Antily

zeměpisná šířka: 18-03N, zeměpisná délka: 063-07W, výška: 4 m

Aktuální stav počasí

Zpráva byla vytvořena před 22 minutami, v 04:00 UTC
Východní vítr 9 kt
Teplota 25°C
Vlhkost vzduchu 79%
Tlak 1019 hPa
Viditelnost 10 km a více
Polojasno ve výšce 1600 ft
Oblačno až skoro zataženo ve výšce 3500 ft

METAR: TNCM 210400Z 08009KT 9999 SCT016 BKN035 25/21 Q1018 A3008

Čas: 00:22 (04:22 UTC)

Předpověď počasí

Zpráva byla vytvořena před 4 hodinami a 43 minutami, v 23:39 UTC
Předpověď platná od 21 v 00 UTC do 21 v 24 UTC
Východní vítr 15 kt
Viditelnost: 10 km
Polojasno ve výšce 2000 ft

TAF: TNCM 202339Z 2100/2124 09015KT P6SM SCT020

Stav a předpovědi počasí z více než 4 000 letišť (zprávy METAR a TAF).

Červené a žluté tečky na mapě představují dostupné meteorologické stanice.

Když kurzor umístíte na tečku, zobrazí se název stanice.

Pak kliknutím zobrazíte stav a předpověď počasí.

Chcete-li změnit mapu, kliknutím na zelené tlačítko se znaménkem +mapu přiblížíte, kliknutím na zelené tlačítko se znaménkem – mapu oddálíte a kliknutím na zelené šipky přejdete na sousední mapy.


METAR-TAF: